Terminal Aerodrome Forecast
Issued by NWS Twin Cities, MN

Home | Current Version | Previous Version | Graphics & Text | Print | Product List | Glossary On
Versions: 1 2 3 4 5 6 7 8 9 10 11 12 13 14
000
FTUS43 KMPX 231728
TAFEAU
TAF
KEAU 231728Z 2318/2418 VRB03KT P6SM SKC
     FM240100 00000KT P6SM BKN200
     FM241200 01004KT P6SM OVC100
     FM241700 36009KT P6SM OVC050=

USA.gov is the U.S. government's official web portal to all federal, state and local government web resources and services.